sensor_id;sensor_type;location;lat;lon;timestamp;pressure;altitude;pressure_sealevel;temperature;humidity
48553;BME280;34335;51.566;6.994;2022-07-04T00:02:17;101400.44;;;15.57;54.66
48553;BME280;34335;51.566;6.994;2022-07-04T00:04:42;101406.63;;;15.52;56.53
48553;BME280;34335;51.566;6.994;2022-07-04T00:07:08;101415.34;;;15.54;56.00
48553;BME280;34335;51.566;6.994;2022-07-04T00:09:33;101410.31;;;15.34;58.20
48553;BME280;34335;51.566;6.994;2022-07-04T00:11:58;101410.25;;;15.37;57.24
48553;BME280;34335;51.566;6.994;2022-07-04T00:14:24;101404.03;;;15.47;55.17
48553;BME280;34335;51.566;6.994;2022-07-04T00:16:49;101406.72;;;15.41;55.53
48553;BME280;34335;51.566;6.994;2022-07-04T00:19:14;101411.03;;;15.45;55.21
48553;BME280;34335;51.566;6.994;2022-07-04T00:21:40;101409.50;;;15.27;55.93
48553;BME280;34335;51.566;6.994;2022-07-04T00:24:05;101406.22;;;15.00;61.04
48553;BME280;34335;51.566;6.994;2022-07-04T00:26:30;101405.16;;;15.21;58.58
48553;BME280;34335;51.566;6.994;2022-07-04T00:28:56;101397.72;;;14.72;64.50
48553;BME280;34335;51.566;6.994;2022-07-04T00:31:21;101399.47;;;14.71;61.85
48553;BME280;34335;51.566;6.994;2022-07-04T00:33:46;101397.56;;;14.90;57.53
48553;BME280;34335;51.566;6.994;2022-07-04T00:36:12;101389.72;;;14.90;59.87
48553;BME280;34335;51.566;6.994;2022-07-04T00:38:37;101401.22;;;14.64;63.91
48553;BME280;34335;51.566;6.994;2022-07-04T00:41:03;101389.81;;;14.73;60.17
48553;BME280;34335;51.566;6.994;2022-07-04T00:43:29;101389.84;;;14.72;65.39
48553;BME280;34335;51.566;6.994;2022-07-04T00:45:55;101392.50;;;14.65;61.92
48553;BME280;34335;51.566;6.994;2022-07-04T00:48:21;101392.50;;;14.62;59.20
48553;BME280;34335;51.566;6.994;2022-07-04T00:50:47;101386.38;;;14.68;63.95
48553;BME280;34335;51.566;6.994;2022-07-04T00:53:14;101396.03;;;14.60;65.60
48553;BME280;34335;51.566;6.994;2022-07-04T00:55:40;101386.38;;;14.65;61.88
48553;BME280;34335;51.566;6.994;2022-07-04T00:58:06;101390.75;;;14.69;58.06
48553;BME280;34335;51.566;6.994;2022-07-04T01:00:32;101394.28;;;14.67;58.23
48553;BME280;34335;51.566;6.994;2022-07-04T01:02:57;101390.75;;;14.63;58.33
48553;BME280;34335;51.566;6.994;2022-07-04T01:05:23;101392.50;;;14.62;61.33
48553;BME280;34335;51.566;6.994;2022-07-04T01:07:48;101392.56;;;14.53;62.83
48553;BME280;34335;51.566;6.994;2022-07-04T01:10:14;101391.75;;;14.45;61.79
48553;BME280;34335;51.566;6.994;2022-07-04T01:12:40;101396.19;;;14.29;67.13
48553;BME280;34335;51.566;6.994;2022-07-04T01:15:06;101393.56;;;14.33;66.13
48553;BME280;34335;51.566;6.994;2022-07-04T01:17:32;101396.19;;;14.30;64.96
48553;BME280;34335;51.566;6.994;2022-07-04T01:19:57;101391.81;;;14.36;60.58
48553;BME280;34335;51.566;6.994;2022-07-04T01:22:23;101379.66;;;14.25;62.41
48553;BME280;34335;51.566;6.994;2022-07-04T01:24:49;101384.00;;;14.23;60.81
48553;BME280;34335;51.566;6.994;2022-07-04T01:27:15;101388.38;;;14.24;61.19
48553;BME280;34335;51.566;6.994;2022-07-04T01:29:40;101378.88;;;14.08;69.63
48553;BME280;34335;51.566;6.994;2022-07-04T01:32:06;101378.78;;;14.20;65.88
48553;BME280;34335;51.566;6.994;2022-07-04T01:34:32;101373.66;;;14.01;68.91
48553;BME280;34335;51.566;6.994;2022-07-04T01:36:59;101370.16;;;14.02;69.26
48553;BME280;34335;51.566;6.994;2022-07-04T01:39:25;101377.13;;;14.07;63.15
48553;BME280;34335;51.566;6.994;2022-07-04T01:41:50;101369.25;;;14.11;61.29
48553;BME280;34335;51.566;6.994;2022-07-04T01:44:16;101362.31;;;14.09;62.75
48553;BME280;34335;51.566;6.994;2022-07-04T01:46:41;101372.81;;;13.96;63.04
48553;BME280;34335;51.566;6.994;2022-07-04T01:49:07;101368.47;;;13.95;65.03
48553;BME280;34335;51.566;6.994;2022-07-04T01:51:33;101367.56;;;13.98;61.11
48553;BME280;34335;51.566;6.994;2022-07-04T01:53:59;101373.66;;;14.01;67.61
48553;BME280;34335;51.566;6.994;2022-07-04T01:56:24;101370.19;;;13.96;62.85
48553;BME280;34335;51.566;6.994;2022-07-04T01:58:49;101378.06;;;13.89;64.65
48553;BME280;34335;51.566;6.994;2022-07-04T02:01:15;101372.81;;;13.90;61.97
48553;BME280;34335;51.566;6.994;2022-07-04T02:04:00;101366.75;;;13.85;69.26
48553;BME280;34335;51.566;6.994;2022-07-04T02:06:25;101372.03;;;13.74;66.39
48553;BME280;34335;51.566;6.994;2022-07-04T02:08:51;101380.69;;;13.84;68.11
48553;BME280;34335;51.566;6.994;2022-07-04T02:11:35;101375.50;;;13.75;63.51
48553;BME280;34335;51.566;6.994;2022-07-04T02:14:19;101373.75;;;13.77;63.90
48553;BME280;34335;51.566;6.994;2022-07-04T02:16:45;101374.69;;;13.65;66.11
48553;BME280;34335;51.566;6.994;2022-07-04T02:19:10;101380.78;;;13.59;64.60
48553;BME280;34335;51.566;6.994;2022-07-04T02:21:36;101375.53;;;13.62;62.42
48553;BME280;34335;51.566;6.994;2022-07-04T02:24:01;101378.16;;;13.61;62.35
48553;BME280;34335;51.566;6.994;2022-07-04T02:26:26;101380.75;;;13.68;66.05
48553;BME280;34335;51.566;6.994;2022-07-04T02:28:52;101373.81;;;13.60;62.01
48553;BME280;34335;51.566;6.994;2022-07-04T02:31:18;101372.09;;;13.60;62.03
48553;BME280;34335;51.566;6.994;2022-07-04T02:33:43;101384.28;;;13.52;72.06
48553;BME280;34335;51.566;6.994;2022-07-04T02:36:08;101379.06;;;13.43;69.34
48553;BME280;34335;51.566;6.994;2022-07-04T02:38:34;101383.44;;;13.31;68.24
48553;BME280;34335;51.566;6.994;2022-07-04T02:40:59;101384.28;;;13.33;65.68
48553;BME280;34335;51.566;6.994;2022-07-04T02:43:24;101389.50;;;13.36;64.62
48553;BME280;34335;51.566;6.994;2022-07-04T02:45:50;101392.13;;;13.36;63.24
48553;BME280;34335;51.566;6.994;2022-07-04T02:48:15;101393.88;;;13.39;62.92
48553;BME280;34335;51.566;6.994;2022-07-04T02:50:40;101400.84;;;13.38;63.01
48553;BME280;34335;51.566;6.994;2022-07-04T02:53:06;101405.19;;;13.36;64.27
48553;BME280;34335;51.566;6.994;2022-07-04T02:55:31;101411.28;;;13.29;66.48
48553;BME280;34335;51.566;6.994;2022-07-04T02:57:56;101419.13;;;13.21;68.84
48553;BME280;34335;51.566;6.994;2022-07-04T03:00:22;101420.00;;;13.13;66.59
48553;BME280;34335;51.566;6.994;2022-07-04T03:02:47;101422.59;;;13.16;64.35
48553;BME280;34335;51.566;6.994;2022-07-04T03:05:12;101421.75;;;13.15;64.59
48553;BME280;34335;51.566;6.994;2022-07-04T03:07:38;101422.63;;;13.14;63.82
48553;BME280;34335;51.566;6.994;2022-07-04T03:10:03;101424.34;;;13.12;63.79
48553;BME280;34335;51.566;6.994;2022-07-04T03:12:28;101425.22;;;13.11;63.71
48553;BME280;34335;51.566;6.994;2022-07-04T03:14:54;101427.84;;;13.09;63.35
48553;BME280;34335;51.566;6.994;2022-07-04T03:17:19;101430.44;;;13.06;63.71
48553;BME280;34335;51.566;6.994;2022-07-04T03:19:45;101434.78;;;13.04;63.66
48553;BME280;34335;51.566;6.994;2022-07-04T03:22:10;101440.88;;;13.02;63.86
48553;BME280;34335;51.566;6.994;2022-07-04T03:24:36;101437.41;;;13.00;63.93
48553;BME280;34335;51.566;6.994;2022-07-04T03:27:01;101440.00;;;12.98;63.83
48553;BME280;34335;51.566;6.994;2022-07-04T03:29:27;101449.59;;;12.94;63.86
48553;BME280;34335;51.566;6.994;2022-07-04T03:31:52;101452.19;;;12.96;67.11
48553;BME280;34335;51.566;6.994;2022-07-04T03:34:17;101451.31;;;12.91;64.94
48553;BME280;34335;51.566;6.994;2022-07-04T03:36:42;101458.28;;;12.90;64.65
48553;BME280;34335;51.566;6.994;2022-07-04T03:39:08;101460.88;;;12.84;64.17
48553;BME280;34335;51.566;6.994;2022-07-04T03:41:33;101450.44;;;12.80;64.08
48553;BME280;34335;51.566;6.994;2022-07-04T03:43:59;101459.13;;;12.77;64.23
48553;BME280;34335;51.566;6.994;2022-07-04T03:46:24;101450.44;;;12.75;64.48
48553;BME280;34335;51.566;6.994;2022-07-04T03:48:49;101459.13;;;12.74;64.39
48553;BME280;34335;51.566;6.994;2022-07-04T03:51:15;101465.19;;;12.73;64.59
48553;BME280;34335;51.566;6.994;2022-07-04T03:53:41;101466.06;;;12.70;64.51
48553;BME280;34335;51.566;6.994;2022-07-04T03:56:06;101457.38;;;12.68;64.40
48553;BME280;34335;51.566;6.994;2022-07-04T03:58:33;101468.69;;;12.69;64.55
48553;BME280;34335;51.566;6.994;2022-07-04T04:00:58;101458.22;;;12.66;64.53
48553;BME280;34335;51.566;6.994;2022-07-04T04:03:24;101461.69;;;12.66;64.74
48553;BME280;34335;51.566;6.994;2022-07-04T04:06:07;101464.31;;;12.65;64.22
48553;BME280;34335;51.566;6.994;2022-07-04T04:08:32;101466.94;;;12.63;65.05
48553;BME280;34335;51.566;6.994;2022-07-04T04:10:58;101466.06;;;12.61;64.86
48553;BME280;34335;51.566;6.994;2022-07-04T04:13:23;101467.78;;;12.59;64.86
48553;BME280;34335;51.566;6.994;2022-07-04T04:15:49;101465.19;;;12.57;64.97
48553;BME280;34335;51.566;6.994;2022-07-04T04:18:14;101471.25;;;12.55;65.26
48553;BME280;34335;51.566;6.994;2022-07-04T04:20:39;101472.13;;;12.55;65.68
48553;BME280;34335;51.566;6.994;2022-07-04T04:23:05;101473.88;;;12.56;65.99
48553;BME280;34335;51.566;6.994;2022-07-04T04:25:30;101474.75;;;12.58;66.27
48553;BME280;34335;51.566;6.994;2022-07-04T04:27:55;101470.38;;;12.60;66.53
48553;BME280;34335;51.566;6.994;2022-07-04T04:30:20;101471.28;;;12.64;66.78
48553;BME280;34335;51.566;6.994;2022-07-04T04:32:46;101467.81;;;12.68;67.07
48553;BME280;34335;51.566;6.994;2022-07-04T04:35:11;101469.56;;;12.75;67.58
48553;BME280;34335;51.566;6.994;2022-07-04T04:37:36;101475.66;;;12.81;68.59
48553;BME280;34335;51.566;6.994;2022-07-04T04:40:02;101470.47;;;12.91;68.91
48553;BME280;34335;51.566;6.994;2022-07-04T04:42:28;101477.44;;;13.02;70.55
48553;BME280;34335;51.566;6.994;2022-07-04T04:44:53;101475.72;;;13.08;69.83
48553;BME280;34335;51.566;6.994;2022-07-04T04:47:18;101477.44;;;13.20;74.80
48553;BME280;34335;51.566;6.994;2022-07-04T04:49:44;101476.59;;;13.24;71.31
48553;BME280;34335;51.566;6.994;2022-07-04T04:52:09;101479.19;;;13.37;72.80
48553;BME280;34335;51.566;6.994;2022-07-04T04:54:36;101476.63;;;13.48;72.15
48553;BME280;34335;51.566;6.994;2022-07-04T04:57:02;101480.06;;;13.62;72.51
48553;BME280;34335;51.566;6.994;2022-07-04T04:59:28;101480.06;;;13.71;73.04
48553;BME280;34335;51.566;6.994;2022-07-04T05:01:57;101486.13;;;13.92;74.00
48553;BME280;34335;51.566;6.994;2022-07-04T05:04:23;101480.00;;;14.06;74.48
48553;BME280;34335;51.566;6.994;2022-07-04T05:06:48;101481.69;;;14.14;74.08
48553;BME280;34335;51.566;6.994;2022-07-04T05:09:14;101482.53;;;14.26;78.46
48553;BME280;34335;51.566;6.994;2022-07-04T05:11:39;101486.00;;;14.32;76.05
48553;BME280;34335;51.566;6.994;2022-07-04T05:14:04;101488.53;;;14.48;76.83
48553;BME280;34335;51.566;6.994;2022-07-04T05:16:30;101487.63;;;14.54;77.21
48553;BME280;34335;51.566;6.994;2022-07-04T05:18:55;101488.53;;;14.54;77.30
48553;BME280;34335;51.566;6.994;2022-07-04T05:21:21;101485.88;;;14.71;76.44
48553;BME280;34335;51.566;6.994;2022-07-04T05:23:46;101476.97;;;14.91;75.57
48553;BME280;34335;51.566;6.994;2022-07-04T05:26:11;101483.84;;;15.10;75.79
48553;BME280;34335;51.566;6.994;2022-07-04T05:28:37;101492.56;;;15.14;75.98
48553;BME280;34335;51.566;6.994;2022-07-04T05:31:02;101489.00;;;15.21;75.33
48553;BME280;34335;51.566;6.994;2022-07-04T05:33:28;101492.53;;;15.17;75.07
48553;BME280;34335;51.566;6.994;2022-07-04T05:35:55;101493.41;;;15.16;77.29
48553;BME280;34335;51.566;6.994;2022-07-04T05:38:21;101497.59;;;15.42;75.39
48553;BME280;34335;51.566;6.994;2022-07-04T05:40:46;101488.56;;;15.72;75.06
48553;BME280;34335;51.566;6.994;2022-07-04T05:43:11;101490.22;;;15.81;74.47
48553;BME280;34335;51.566;6.994;2022-07-04T05:45:37;101493.66;;;15.88;75.07
48553;BME280;34335;51.566;6.994;2022-07-04T05:48:02;101491.28;;;15.63;75.20
48553;BME280;34335;51.566;6.994;2022-07-04T05:50:28;101487.63;;;15.78;74.70
48553;BME280;34335;51.566;6.994;2022-07-04T05:52:53;101492.97;;;15.69;75.50
48553;BME280;34335;51.566;6.994;2022-07-04T05:55:19;101493.72;;;15.82;75.12
48553;BME280;34335;51.566;6.994;2022-07-04T05:57:44;101491.88;;;15.93;74.57
48553;BME280;34335;51.566;6.994;2022-07-04T06:00:10;101487.44;;;16.00;74.65
48553;BME280;34335;51.566;6.994;2022-07-04T06:02:36;101493.34;;;16.20;74.11
48553;BME280;34335;51.566;6.994;2022-07-04T06:05:02;101480.22;;;16.20;73.99
48553;BME280;34335;51.566;6.994;2022-07-04T06:07:27;101479.31;;;16.23;73.12
48553;BME280;34335;51.566;6.994;2022-07-04T06:09:52;101479.91;;;16.42;73.54
48553;BME280;34335;51.566;6.994;2022-07-04T06:12:18;101478.22;;;16.40;73.93
48553;BME280;34335;51.566;6.994;2022-07-04T06:14:43;101472.63;;;16.66;73.58
48553;BME280;34335;51.566;6.994;2022-07-04T06:17:08;101469.16;;;17.22;72.50
48553;BME280;34335;51.566;6.994;2022-07-04T06:19:34;101465.31;;;16.87;71.29
48553;BME280;34335;51.566;6.994;2022-07-04T06:21:59;101472.41;;;16.78;71.75
48553;BME280;34335;51.566;6.994;2022-07-04T06:24:24;101473.34;;;16.77;70.96
48553;BME280;34335;51.566;6.994;2022-07-04T06:26:50;101470.50;;;16.90;71.05
48553;BME280;34335;51.566;6.994;2022-07-04T06:29:15;101475.16;;;17.30;71.36
48553;BME280;34335;51.566;6.994;2022-07-04T06:31:40;101472.81;;;17.13;70.61
48553;BME280;34335;51.566;6.994;2022-07-04T06:34:06;101486.22;;;16.96;70.00
48553;BME280;34335;51.566;6.994;2022-07-04T06:36:49;101482.47;;;17.12;70.32
48553;BME280;34335;51.566;6.994;2022-07-04T06:39:15;101489.94;;;17.37;69.12
48553;BME280;34335;51.566;6.994;2022-07-04T06:41:40;101488.19;;;17.36;69.48
48553;BME280;34335;51.566;6.994;2022-07-04T06:44:05;101478.69;;;17.79;69.11
48553;BME280;34335;51.566;6.994;2022-07-04T06:46:31;101479.31;;;17.92;67.87
48553;BME280;34335;51.566;6.994;2022-07-04T06:48:56;101477.72;;;18.30;66.47
48553;BME280;34335;51.566;6.994;2022-07-04T06:51:22;101485.13;;;18.52;65.58
48553;BME280;34335;51.566;6.994;2022-07-04T06:53:48;101483.38;;;18.10;65.28
48553;BME280;34335;51.566;6.994;2022-07-04T06:56:13;101486.38;;;17.90;64.03
48553;BME280;34335;51.566;6.994;2022-07-04T06:58:39;101470.81;;;18.23;64.42
48553;BME280;34335;51.566;6.994;2022-07-04T07:01:04;101482.09;;;18.30;65.56
48553;BME280;34335;51.566;6.994;2022-07-04T07:03:30;101481.72;;;18.48;63.24
48553;BME280;34335;51.566;6.994;2022-07-04T07:05:55;101484.72;;;18.72;62.49
48553;BME280;34335;51.566;6.994;2022-07-04T07:08:22;101489.41;;;18.59;64.93
48553;BME280;34335;51.566;6.994;2022-07-04T07:10:47;101487.88;;;18.88;64.51
48553;BME280;34335;51.566;6.994;2022-07-04T07:13:12;101486.28;;;19.19;62.04
48553;BME280;34335;51.566;6.994;2022-07-04T07:15:39;101485.63;;;18.71;60.35
48553;BME280;34335;51.566;6.994;2022-07-04T07:18:05;101483.72;;;18.76;63.25
48553;BME280;34335;51.566;6.994;2022-07-04T07:20:31;101480.53;;;19.03;63.22
48553;BME280;34335;51.566;6.994;2022-07-04T07:22:57;101484.06;;;19.38;62.81
48553;BME280;34335;51.566;6.994;2022-07-04T07:25:22;101479.56;;;19.76;61.77
48553;BME280;34335;51.566;6.994;2022-07-04T07:27:47;101482.44;;;19.67;58.87
48553;BME280;34335;51.566;6.994;2022-07-04T07:30:13;101489.47;;;19.33;58.92
48553;BME280;34335;51.566;6.994;2022-07-04T07:32:39;101486.47;;;19.11;57.49
48553;BME280;34335;51.566;6.994;2022-07-04T07:35:04;101479.81;;;19.65;59.03
48553;BME280;34335;51.566;6.994;2022-07-04T07:37:30;101493.69;;;19.39;55.52
48553;BME280;34335;51.566;6.994;2022-07-04T07:39:55;101485.88;;;19.70;57.73
48553;BME280;34335;51.566;6.994;2022-07-04T07:42:23;101487.56;;;19.73;56.21
48553;BME280;34335;51.566;6.994;2022-07-04T07:44:49;101474.28;;;20.39;55.40
48553;BME280;34335;51.566;6.994;2022-07-04T07:47:14;101487.66;;;20.63;53.77
48553;BME280;34335;51.566;6.994;2022-07-04T07:49:43;101479.81;;;20.60;54.83
48553;BME280;34335;51.566;6.994;2022-07-04T07:52:09;101480.72;;;20.59;55.53
48553;BME280;34335;51.566;6.994;2022-07-04T07:54:35;101480.31;;;20.73;53.30
48553;BME280;34335;51.566;6.994;2022-07-04T07:57:00;101481.56;;;21.17;57.47
48553;BME280;34335;51.566;6.994;2022-07-04T07:59:25;101481.03;;;20.79;49.79
48553;BME280;34335;51.566;6.994;2022-07-04T08:01:51;101482.31;;;21.21;51.74
48553;BME280;34335;51.566;6.994;2022-07-04T08:04:16;101486.72;;;20.65;51.93
48553;BME280;34335;51.566;6.994;2022-07-04T08:07:04;101476.38;;;20.28;53.42
48553;BME280;34335;51.566;6.994;2022-07-04T08:09:30;101479.63;;;20.06;52.49
48553;BME280;34335;51.566;6.994;2022-07-04T08:11:56;101476.88;;;20.99;55.73
48553;BME280;34335;51.566;6.994;2022-07-04T08:14:22;101480.44;;;20.68;51.89
48553;BME280;34335;51.566;6.994;2022-07-04T08:16:47;101476.16;;;20.64;51.38
48553;BME280;34335;51.566;6.994;2022-07-04T08:19:12;101475.22;;;21.22;51.77
48553;BME280;34335;51.566;6.994;2022-07-04T08:21:38;101474.94;;;21.83;48.41
48553;BME280;34335;51.566;6.994;2022-07-04T08:24:03;101465.50;;;21.49;52.66
48553;BME280;34335;51.566;6.994;2022-07-04T08:26:29;101465.59;;;21.73;49.05
48553;BME280;34335;51.566;6.994;2022-07-04T08:28:55;101459.25;;;22.26;47.96
48553;BME280;34335;51.566;6.994;2022-07-04T08:31:23;101480.03;;;21.10;47.27
48553;BME280;34335;51.566;6.994;2022-07-04T08:33:49;101468.50;;;21.11;47.80
48553;BME280;34335;51.566;6.994;2022-07-04T08:36:14;101476.47;;;21.38;48.23
48553;BME280;34335;51.566;6.994;2022-07-04T08:38:40;101467.38;;;22.21;49.58
48553;BME280;34335;51.566;6.994;2022-07-04T08:41:05;101464.19;;;22.12;45.79
48553;BME280;34335;51.566;6.994;2022-07-04T08:43:31;101461.34;;;23.08;49.55
48553;BME280;34335;51.566;6.994;2022-07-04T08:46:04;101474.88;;;22.08;48.02
48553;BME280;34335;51.566;6.994;2022-07-04T08:48:31;101476.25;;;22.19;49.23
48553;BME280;34335;51.566;6.994;2022-07-04T08:51:01;101474.31;;;22.00;46.06
48553;BME280;34335;51.566;6.994;2022-07-04T08:53:30;101471.19;;;23.27;49.52
48553;BME280;34335;51.566;6.994;2022-07-04T08:55:56;101467.19;;;22.72;44.78
48553;BME280;34335;51.566;6.994;2022-07-04T08:58:44;101477.13;;;22.89;46.25
48553;BME280;34335;51.566;6.994;2022-07-04T09:01:11;101478.75;;;22.93;48.49
48553;BME280;34335;51.566;6.994;2022-07-04T09:03:42;101479.94;;;22.40;46.13
48553;BME280;34335;51.566;6.994;2022-07-04T09:06:08;101478.91;;;23.54;50.16
48553;BME280;34335;51.566;6.994;2022-07-04T09:08:33;101460.47;;;24.30;47.76
48553;BME280;34335;51.566;6.994;2022-07-04T09:10:59;101458.59;;;23.92;46.57
48553;BME280;34335;51.566;6.994;2022-07-04T09:13:25;101458.22;;;24.02;45.87
48553;BME280;34335;51.566;6.994;2022-07-04T09:15:51;101457.81;;;24.30;44.03
48553;BME280;34335;51.566;6.994;2022-07-04T09:18:27;101458.38;;;23.37;45.11
48553;BME280;34335;51.566;6.994;2022-07-04T09:20:55;101468.13;;;22.93;44.20
48553;BME280;34335;51.566;6.994;2022-07-04T09:23:26;101453.19;;;23.95;48.55
48553;BME280;34335;51.566;6.994;2022-07-04T09:28:44;101445.88;;;25.12;46.69
48553;BME280;34335;51.566;6.994;2022-07-04T09:31:37;101450.47;;;24.35;42.19
48553;BME280;34335;51.566;6.994;2022-07-04T09:34:04;101458.59;;;23.92;41.89
48553;BME280;34335;51.566;6.994;2022-07-04T09:36:38;101450.75;;;24.48;46.31
48553;BME280;34335;51.566;6.994;2022-07-04T09:39:18;101453.06;;;24.18;48.89
48553;BME280;34335;51.566;6.994;2022-07-04T09:41:52;101452.44;;;24.87;41.17
48553;BME280;34335;51.566;6.994;2022-07-04T09:44:19;101457.22;;;24.98;41.08
48553;BME280;34335;51.566;6.994;2022-07-04T09:46:44;101453.56;;;25.18;45.68
48553;BME280;34335;51.566;6.994;2022-07-04T09:49:10;101454.63;;;24.41;39.12
48553;BME280;34335;51.566;6.994;2022-07-04T09:51:49;101459.00;;;23.64;41.73
48553;BME280;34335;51.566;6.994;2022-07-04T09:54:22;101459.50;;;25.59;42.00
48553;BME280;34335;51.566;6.994;2022-07-04T09:56:53;101461.44;;;25.73;39.29
48553;BME280;34335;51.566;6.994;2022-07-04T09:59:19;101461.22;;;24.51;42.65
48553;BME280;34335;51.566;6.994;2022-07-04T10:01:45;101449.16;;;26.68;44.42
48553;BME280;34335;51.566;6.994;2022-07-04T10:04:11;101455.13;;;26.41;44.78
48553;BME280;34335;51.566;6.994;2022-07-04T10:06:39;101448.31;;;26.67;42.49
48553;BME280;34335;51.566;6.994;2022-07-04T10:09:16;101456.00;;;25.58;38.81
48553;BME280;34335;51.566;6.994;2022-07-04T10:11:43;101447.63;;;26.16;37.15
48553;BME280;34335;51.566;6.994;2022-07-04T10:14:10;101457.16;;;24.06;42.12
48553;BME280;34335;51.566;6.994;2022-07-04T10:16:38;101452.63;;;25.02;41.54
48553;BME280;34335;51.566;6.994;2022-07-04T10:19:04;101465.72;;;24.13;40.20
48553;BME280;34335;51.566;6.994;2022-07-04T10:21:30;101445.16;;;25.61;41.65
48553;BME280;34335;51.566;6.994;2022-07-04T10:23:55;101445.59;;;25.54;40.24
48553;BME280;34335;51.566;6.994;2022-07-04T10:26:21;101454.69;;;24.20;42.42
48553;BME280;34335;51.566;6.994;2022-07-04T10:28:49;101467.38;;;22.90;43.04
48553;BME280;34335;51.566;6.994;2022-07-04T10:31:15;101443.00;;;24.24;43.69
48553;BME280;34335;51.566;6.994;2022-07-04T10:33:42;101448.59;;;24.37;39.39
48553;BME280;34335;51.566;6.994;2022-07-04T10:36:18;101437.06;;;25.80;38.94
48553;BME280;34335;51.566;6.994;2022-07-04T10:38:56;101430.25;;;26.08;37.48
48553;BME280;34335;51.566;6.994;2022-07-04T10:41:26;101437.75;;;25.33;36.68
48553;BME280;34335;51.566;6.994;2022-07-04T10:43:58;101430.97;;;25.78;37.42
48553;BME280;34335;51.566;6.994;2022-07-04T10:46:30;101428.03;;;26.49;38.76
48553;BME280;34335;51.566;6.994;2022-07-04T10:53:59;101436.25;;;25.27;36.91
48553;BME280;34335;51.566;6.994;2022-07-04T10:58:50;101416.47;;;25.33;39.16
48553;BME280;34335;51.566;6.994;2022-07-04T11:01:17;101411.38;;;26.29;35.12
48553;BME280;34335;51.566;6.994;2022-07-04T11:03:48;101417.25;;;25.53;38.52
48553;BME280;34335;51.566;6.994;2022-07-04T11:11:55;101410.44;;;25.80;39.49
48553;BME280;34335;51.566;6.994;2022-07-04T11:14:42;101408.72;;;25.46;36.40
48553;BME280;34335;51.566;6.994;2022-07-04T11:17:36;101397.97;;;25.47;38.30
48553;BME280;34335;51.566;6.994;2022-07-04T11:20:03;101393.78;;;27.18;35.27
48553;BME280;34335;51.566;6.994;2022-07-04T11:22:31;101399.13;;;26.57;36.42
48553;BME280;34335;51.566;6.994;2022-07-04T11:24:57;101395.78;;;27.74;37.35
48553;BME280;34335;51.566;6.994;2022-07-04T11:27:23;101392.22;;;27.44;36.33
48553;BME280;34335;51.566;6.994;2022-07-04T11:29:57;101384.28;;;27.28;34.41
48553;BME280;34335;51.566;6.994;2022-07-04T11:32:32;101370.19;;;27.84;32.30
48553;BME280;34335;51.566;6.994;2022-07-04T11:34:58;101387.09;;;27.11;31.78
48553;BME280;34335;51.566;6.994;2022-07-04T11:37:23;101383.75;;;25.13;37.69
48553;BME280;34335;51.566;6.994;2022-07-04T11:39:52;101392.53;;;25.66;39.27
48553;BME280;34335;51.566;6.994;2022-07-04T11:42:18;101389.63;;;26.03;36.94
48553;BME280;34335;51.566;6.994;2022-07-04T11:45:02;101390.56;;;26.20;37.49
48553;BME280;34335;51.566;6.994;2022-07-04T11:47:36;101381.28;;;25.77;36.98
48553;BME280;34335;51.566;6.994;2022-07-04T11:50:13;101375.25;;;27.00;36.32
48553;BME280;34335;51.566;6.994;2022-07-04T11:52:48;101383.09;;;27.18;34.89
48553;BME280;34335;51.566;6.994;2022-07-04T11:55:17;101381.25;;;26.27;34.22
48553;BME280;34335;51.566;6.994;2022-07-04T11:57:47;101379.88;;;27.13;34.93
48553;BME280;34335;51.566;6.994;2022-07-04T12:00:14;101381.28;;;27.04;34.71
48553;BME280;34335;51.566;6.994;2022-07-04T12:02:40;101396.06;;;26.17;35.35
48553;BME280;34335;51.566;6.994;2022-07-04T12:05:09;101395.25;;;25.65;36.29
48553;BME280;34335;51.566;6.994;2022-07-04T12:07:37;101386.13;;;25.87;37.52
48553;BME280;34335;51.566;6.994;2022-07-04T12:10:12;101391.06;;;26.10;38.58
48553;BME280;34335;51.566;6.994;2022-07-04T12:13:00;101381.56;;;27.59;37.16
48553;BME280;34335;51.566;6.994;2022-07-04T12:15:41;101388.75;;;26.83;33.74
48553;BME280;34335;51.566;6.994;2022-07-04T12:18:20;101366.22;;;28.19;34.93
48553;BME280;34335;51.566;6.994;2022-07-04T12:20:47;101368.63;;;27.22;32.48
48553;BME280;34335;51.566;6.994;2022-07-04T12:23:13;101361.84;;;27.16;31.49
48553;BME280;34335;51.566;6.994;2022-07-04T12:25:39;101372.03;;;27.55;34.75
48553;BME280;34335;51.566;6.994;2022-07-04T12:28:08;101363.44;;;28.06;33.15
48553;BME280;34335;51.566;6.994;2022-07-04T12:30:36;101362.19;;;27.70;34.55
48553;BME280;34335;51.566;6.994;2022-07-04T12:33:04;101358.84;;;27.66;36.12
48553;BME280;34335;51.566;6.994;2022-07-04T12:35:33;101359.66;;;27.37;36.71
48553;BME280;34335;51.566;6.994;2022-07-04T12:38:06;101363.00;;;27.27;35.81
48553;BME280;34335;51.566;6.994;2022-07-04T12:40:34;101366.31;;;27.01;35.75
48553;BME280;34335;51.566;6.994;2022-07-04T12:42:59;101358.91;;;27.06;35.38
48553;BME280;34335;51.566;6.994;2022-07-04T12:45:25;101367.41;;;25.55;37.24
48553;BME280;34335;51.566;6.994;2022-07-04T12:47:51;101351.03;;;27.63;36.82
48553;BME280;34335;51.566;6.994;2022-07-04T12:50:28;101353.19;;;27.27;33.48
48553;BME280;34335;51.566;6.994;2022-07-04T12:52:53;101346.81;;;27.73;36.52
48553;BME280;34335;51.566;6.994;2022-07-04T12:55:18;101342.81;;;27.66;34.58
48553;BME280;34335;51.566;6.994;2022-07-04T12:57:44;101337.31;;;27.96;34.21
48553;BME280;34335;51.566;6.994;2022-07-04T13:00:09;101342.50;;;27.42;33.48
48553;BME280;34335;51.566;6.994;2022-07-04T13:02:35;101345.59;;;27.50;34.05
48553;BME280;34335;51.566;6.994;2022-07-04T13:05:00;101343.44;;;27.12;35.92
48553;BME280;34335;51.566;6.994;2022-07-04T13:07:25;101335.22;;;27.00;33.02